createdAt,value
2018-07-04T00:00:48.118Z,19.78
2018-07-04T00:06:08.312Z,19.78
2018-07-04T00:11:29.657Z,19.78
2018-07-04T00:16:49.777Z,19.85
2018-07-04T00:22:09.995Z,19.82
2018-07-04T00:27:30.146Z,19.80
2018-07-04T00:32:50.521Z,19.79
2018-07-04T00:38:10.667Z,19.78
2018-07-04T00:43:30.805Z,19.64
2018-07-04T00:48:51.041Z,19.57
2018-07-04T00:54:11.257Z,19.42
2018-07-04T00:59:31.466Z,19.36
2018-07-04T01:04:51.847Z,19.33
2018-07-04T01:10:12.222Z,19.25
2018-07-04T01:15:32.390Z,19.22
2018-07-04T01:20:58.505Z,19.12
2018-07-04T01:26:18.826Z,19.00
2018-07-04T01:31:39.046Z,19.01
2018-07-04T01:36:59.234Z,18.88
2018-07-04T01:42:19.481Z,18.85
2018-07-04T01:47:40.736Z,18.77
2018-07-04T01:53:01.086Z,18.68
2018-07-04T01:58:21.469Z,18.62
2018-07-04T02:03:41.435Z,18.63
2018-07-04T02:09:01.668Z,18.59
2018-07-04T02:14:21.980Z,18.45
2018-07-04T02:19:42.182Z,18.34
2018-07-04T02:25:02.182Z,18.26
2018-07-04T02:30:22.441Z,18.27
2018-07-04T02:35:42.798Z,18.17
2018-07-04T02:41:03.109Z,18.10
2018-07-04T02:46:29.131Z,18.04
2018-07-04T02:51:49.326Z,18.03
2018-07-04T02:57:09.524Z,17.97
2018-07-04T03:02:29.845Z,17.99
2018-07-04T03:07:50.078Z,17.97
2018-07-04T03:13:10.496Z,18.01
2018-07-04T03:18:30.603Z,17.87
2018-07-04T03:23:50.554Z,17.91
2018-07-04T03:29:10.718Z,18.03
2018-07-04T03:34:30.905Z,18.00
2018-07-04T03:39:50.990Z,17.99
2018-07-04T03:45:11.257Z,17.98
2018-07-04T03:50:31.513Z,17.77
2018-07-04T03:55:51.611Z,17.71
2018-07-04T04:01:11.610Z,17.58
2018-07-04T04:06:31.693Z,17.48
2018-07-04T04:11:51.871Z,17.44
2018-07-04T04:17:12.237Z,17.44
2018-07-04T04:22:32.458Z,17.33
2018-07-04T04:27:52.793Z,17.37
2018-07-04T04:33:13.127Z,17.49
2018-07-04T04:38:33.555Z,17.62
2018-07-04T04:43:53.953Z,17.79
2018-07-04T04:49:14.258Z,17.84
2018-07-04T04:54:34.465Z,17.95
2018-07-04T04:59:54.737Z,18.17
2018-07-04T05:05:14.949Z,18.29
2018-07-04T05:10:35.246Z,18.52
2018-07-04T05:15:55.679Z,18.82
2018-07-04T05:21:15.890Z,18.93
2018-07-04T05:26:36.129Z,19.00
2018-07-04T05:31:56.628Z,19.29
2018-07-04T05:37:16.925Z,19.36
2018-07-04T05:42:36.958Z,19.62
2018-07-04T05:47:57.053Z,19.66
2018-07-04T05:53:17.317Z,19.74
2018-07-04T05:58:37.460Z,19.83
2018-07-04T06:03:57.598Z,19.90
2018-07-04T06:09:17.865Z,20.01
2018-07-04T06:14:38.333Z,20.24
2018-07-04T06:19:58.833Z,20.41
2018-07-04T06:25:19.090Z,20.64
2018-07-04T06:30:39.307Z,20.91
2018-07-04T06:35:59.654Z,20.86
2018-07-04T06:41:01.142Z,21.19
2018-07-04T06:46:02.662Z,21.42
2018-07-04T06:51:04.191Z,21.60
2018-07-04T06:56:05.661Z,21.77
2018-07-04T07:01:07.133Z,22.33
2018-07-04T07:06:27.331Z,22.30
2018-07-04T07:11:47.369Z,22.28
2018-07-04T07:17:07.371Z,22.26
2018-07-04T07:22:27.537Z,22.57
2018-07-04T07:27:47.800Z,22.75
2018-07-04T07:33:08.063Z,22.82
2018-07-04T07:38:28.406Z,22.91
2018-07-04T07:43:48.757Z,23.24
2018-07-04T07:49:09.101Z,23.06
2018-07-04T07:54:29.329Z,23.39
2018-07-04T07:59:49.378Z,23.67
2018-07-04T08:05:09.970Z,24.09
2018-07-04T08:10:30.329Z,24.33
2018-07-04T08:15:50.687Z,24.69
2018-07-04T08:21:10.909Z,25.17
2018-07-04T08:26:25.352Z,24.96
2018-07-04T08:31:45.768Z,25.23
2018-07-04T08:37:06.033Z,25.78
2018-07-04T08:42:25.997Z,26.06
2018-07-04T08:47:46.374Z,26.05
2018-07-04T08:53:06.770Z,26.33
2018-07-04T08:58:27.087Z,26.29
2018-07-04T09:03:47.495Z,26.53
2018-07-04T09:09:07.934Z,26.58
2018-07-04T09:14:28.298Z,26.97
2018-07-04T09:19:48.413Z,27.45
2018-07-04T09:25:09.086Z,27.03
2018-07-04T09:30:29.448Z,27.25
2018-07-04T09:35:49.733Z,27.36
2018-07-04T09:41:09.970Z,27.82
2018-07-04T09:46:30.339Z,28.16
2018-07-04T09:51:50.594Z,28.54
2018-07-04T09:57:10.987Z,28.90
2018-07-04T10:02:31.351Z,28.73
2018-07-04T10:07:45.756Z,28.78
2018-07-04T10:13:05.920Z,28.71
2018-07-04T10:18:26.215Z,28.88
2018-07-04T10:23:46.665Z,28.80
2018-07-04T10:29:07.046Z,29.13
2018-07-04T10:34:27.412Z,29.32
2018-07-04T10:39:47.707Z,29.41
2018-07-04T10:45:07.809Z,29.80
2018-07-04T10:50:28.086Z,29.89
2018-07-04T10:55:48.427Z,30.14
2018-07-04T11:01:08.675Z,30.33
2018-07-04T11:06:28.733Z,30.17
2018-07-04T11:11:49.040Z,30.11
2018-07-04T11:17:09.391Z,30.36
2018-07-04T11:22:29.552Z,30.77
2018-07-04T11:27:49.986Z,30.89
2018-07-04T11:33:10.414Z,30.95
2018-07-04T11:38:30.933Z,30.83
2018-07-04T11:43:45.973Z,30.80
2018-07-04T11:48:47.545Z,30.92
2018-07-04T11:53:49.037Z,31.23
2018-07-04T11:58:50.899Z,31.21
2018-07-04T12:04:11.417Z,31.45
2018-07-04T12:09:12.917Z,31.56
2018-07-04T12:14:14.418Z,31.89
2018-07-04T12:19:15.926Z,32.03
2018-07-04T12:24:18.484Z,32.08
2018-07-04T12:29:20.218Z,32.10
2018-07-04T12:34:21.719Z,32.17
2018-07-04T12:39:23.223Z,32.28
2018-07-04T12:44:24.726Z,32.46
2018-07-04T12:49:27.314Z,32.57
2018-07-04T12:54:34.414Z,32.35
2018-07-04T12:59:54.634Z,32.31
2018-07-04T13:05:14.991Z,32.60
2018-07-04T13:10:35.346Z,32.84
2018-07-04T13:15:55.592Z,33.23
2018-07-04T13:21:15.736Z,33.57
2018-07-04T13:26:35.892Z,33.79
2018-07-04T13:31:56.165Z,34.25
2018-07-04T13:37:16.395Z,34.35
2018-07-04T13:42:36.530Z,34.32
2018-07-04T13:47:56.552Z,34.39
2018-07-04T13:53:16.830Z,34.33
2018-07-04T13:58:37.016Z,34.45
2018-07-04T14:03:57.556Z,34.74
2018-07-04T14:09:17.676Z,34.95
2018-07-04T14:14:37.890Z,34.82
2018-07-04T14:19:58.111Z,35.06
2018-07-04T14:25:18.476Z,35.45
2018-07-04T14:30:38.930Z,35.66
2018-07-04T14:35:59.197Z,35.75
2018-07-04T14:41:19.651Z,35.94
2018-07-04T14:46:39.962Z,36.16
2018-07-04T14:52:00.168Z,36.10
2018-07-04T14:57:20.502Z,35.93
2018-07-04T15:02:40.762Z,35.94
2018-07-04T15:08:01.416Z,35.50
2018-07-04T15:13:21.689Z,35.95
2018-07-04T15:18:42.110Z,36.26
2018-07-04T15:24:02.572Z,36.13
2018-07-04T15:29:22.846Z,35.98
2018-07-04T15:34:42.910Z,35.98
2018-07-04T15:40:03.130Z,35.73
2018-07-04T15:45:23.420Z,35.51
2018-07-04T15:50:43.618Z,35.60
2018-07-04T15:56:03.894Z,35.11
2018-07-04T16:01:24.253Z,34.90
2018-07-04T16:06:44.357Z,34.89
2018-07-04T16:12:04.564Z,35.16
2018-07-04T16:17:24.643Z,35.30
2018-07-04T16:22:44.732Z,35.55
2018-07-04T16:28:04.869Z,35.82
2018-07-04T16:33:25.306Z,35.92
2018-07-04T16:38:45.541Z,35.50
2018-07-04T16:44:05.792Z,35.32
2018-07-04T16:49:26.023Z,35.17
2018-07-04T16:54:46.245Z,35.29
2018-07-04T17:00:06.490Z,35.49
2018-07-04T17:05:26.945Z,35.28
2018-07-04T17:10:47.167Z,34.86
2018-07-04T17:16:07.699Z,34.12
2018-07-04T17:21:27.965Z,34.13
2018-07-04T17:26:48.109Z,34.13
2018-07-04T17:32:08.200Z,33.81
2018-07-04T17:37:28.485Z,33.61
2018-07-04T17:42:48.789Z,33.22
2018-07-04T17:48:09.149Z,33.41
2018-07-04T17:53:29.215Z,33.25
2018-07-04T17:58:49.465Z,33.14
2018-07-04T18:04:10.319Z,32.89
2018-07-04T18:09:30.775Z,32.75
2018-07-04T18:14:51.285Z,32.50
2018-07-04T18:20:11.586Z,32.36
2018-07-04T18:25:31.891Z,32.24
2018-07-04T18:30:52.192Z,32.11
2018-07-04T18:36:12.307Z,32.03
2018-07-04T18:41:32.658Z,31.89
2018-07-04T18:46:52.866Z,31.67
2018-07-04T18:52:12.993Z,31.42
2018-07-04T18:57:33.163Z,31.30
2018-07-04T19:02:53.368Z,31.01
2018-07-04T19:08:13.552Z,30.68
2018-07-04T19:13:27.967Z,30.36
2018-07-04T19:18:48.832Z,30.22
2018-07-04T19:24:09.278Z,30.07
2018-07-04T19:29:29.709Z,29.95
2018-07-04T19:34:49.898Z,29.83
2018-07-04T19:40:10.221Z,29.65
2018-07-04T19:45:30.443Z,29.40
2018-07-04T19:50:50.778Z,29.16
2018-07-04T19:56:10.686Z,29.00
2018-07-04T20:01:25.029Z,28.79
2018-07-04T20:06:45.257Z,28.51
2018-07-04T20:12:06.188Z,28.36
2018-07-04T20:17:26.605Z,28.22
2018-07-04T20:22:46.928Z,27.99
2018-07-04T20:28:07.175Z,27.81
2018-07-04T20:33:27.578Z,27.57
2018-07-04T20:38:47.921Z,27.34
2018-07-04T20:44:08.345Z,27.20
2018-07-04T20:49:28.706Z,27.03
2018-07-04T20:54:48.921Z,26.94
2018-07-04T21:00:08.993Z,26.78
2018-07-04T21:05:29.382Z,26.47
2018-07-04T21:10:49.730Z,26.39
2018-07-04T21:16:09.938Z,26.34
2018-07-04T21:21:30.108Z,26.27
2018-07-04T21:26:50.507Z,26.18
2018-07-04T21:32:11.041Z,26.09
2018-07-04T21:37:31.498Z,25.92
2018-07-04T21:42:51.702Z,25.73
2018-07-04T21:48:11.950Z,25.64
2018-07-04T21:53:32.169Z,25.52
2018-07-04T21:58:46.669Z,25.39
2018-07-04T22:04:06.844Z,25.24
2018-07-04T22:09:27.062Z,25.13
2018-07-04T22:14:47.286Z,25.05
2018-07-04T22:20:07.473Z,24.91
2018-07-04T22:25:27.907Z,24.84
2018-07-04T22:30:48.152Z,24.90
2018-07-04T22:36:08.431Z,24.92
2018-07-04T22:41:28.738Z,24.84
2018-07-04T22:46:49.020Z,24.64
2018-07-04T22:52:09.357Z,24.56
2018-07-04T22:57:29.613Z,24.57
2018-07-04T23:02:49.851Z,24.45
2018-07-04T23:08:10.093Z,24.47
2018-07-04T23:13:30.294Z,24.40
2018-07-04T23:18:50.661Z,24.30
2018-07-04T23:24:10.897Z,24.30
2018-07-04T23:29:31.060Z,24.09
2018-07-04T23:34:51.423Z,23.84
2018-07-04T23:40:11.733Z,23.53
2018-07-04T23:45:31.969Z,23.32
2018-07-04T23:50:52.095Z,23.12
2018-07-04T23:56:12.354Z,23.02
